sensor_id;sensor_type;location;lat;lon;timestamp;pressure;altitude;pressure_sealevel;temperature
77414;BMP280;66486;49.992;19.164;2024-01-06T00:02:24;97752.13;;;2.16
77414;BMP280;66486;49.992;19.164;2024-01-06T00:04:51;97756.25;;;2.10
77414;BMP280;66486;49.992;19.164;2024-01-06T00:07:17;97760.44;;;2.28
77414;BMP280;66486;49.992;19.164;2024-01-06T00:09:43;97758.19;;;2.27
77414;BMP280;66486;49.992;19.164;2024-01-06T00:12:09;97750.97;;;2.34
77414;BMP280;66486;49.992;19.164;2024-01-06T00:14:36;97749.84;;;2.28
77414;BMP280;66486;49.992;19.164;2024-01-06T00:17:03;97750.19;;;2.41
77414;BMP280;66486;49.992;19.164;2024-01-06T00:19:29;97738.44;;;2.31
77414;BMP280;66486;49.992;19.164;2024-01-06T00:21:55;97738.47;;;2.38
77414;BMP280;66486;49.992;19.164;2024-01-06T00:24:21;97741.47;;;2.40
77414;BMP280;66486;49.992;19.164;2024-01-06T00:26:47;97729.38;;;2.22
77414;BMP280;66486;49.992;19.164;2024-01-06T00:29:13;97733.53;;;2.09
77414;BMP280;66486;49.992;19.164;2024-01-06T00:31:39;97726.72;;;2.25
77414;BMP280;66486;49.992;19.164;2024-01-06T00:34:05;97728.25;;;2.19
77414;BMP280;66486;49.992;19.164;2024-01-06T00:36:31;97733.16;;;2.10
77414;BMP280;66486;49.992;19.164;2024-01-06T00:38:57;97726.31;;;2.02
77414;BMP280;66486;49.992;19.164;2024-01-06T00:41:23;97729.72;;;1.99
77414;BMP280;66486;49.992;19.164;2024-01-06T00:43:49;97726.31;;;1.98
77414;BMP280;66486;49.992;19.164;2024-01-06T00:46:15;97730.13;;;2.22
77414;BMP280;66486;49.992;19.164;2024-01-06T00:48:41;97717.63;;;2.05
77414;BMP280;66486;49.992;19.164;2024-01-06T00:51:08;97724.06;;;2.22
77414;BMP280;66486;49.992;19.164;2024-01-06T00:53:34;97716.13;;;2.11
77414;BMP280;66486;49.992;19.164;2024-01-06T00:56:00;97726.31;;;2.06
77414;BMP280;66486;49.992;19.164;2024-01-06T00:58:26;97722.94;;;2.09
77414;BMP280;66486;49.992;19.164;2024-01-06T01:00:52;97726.31;;;2.09
77414;BMP280;66486;49.992;19.164;2024-01-06T01:03:18;97732.03;;;2.08
77414;BMP280;66486;49.992;19.164;2024-01-06T01:05:44;97724.84;;;2.22
77414;BMP280;66486;49.992;19.164;2024-01-06T01:08:10;97729.75;;;2.10
77414;BMP280;66486;49.992;19.164;2024-01-06T01:10:37;97720.66;;;2.11
77414;BMP280;66486;49.992;19.164;2024-01-06T01:13:03;97725.59;;;2.19
77414;BMP280;66486;49.992;19.164;2024-01-06T01:15:29;97725.97;;;2.28
77414;BMP280;66486;49.992;19.164;2024-01-06T01:17:55;97734.69;;;2.25
77414;BMP280;66486;49.992;19.164;2024-01-06T01:20:21;97744.16;;;2.26
77414;BMP280;66486;49.992;19.164;2024-01-06T01:22:47;97740.72;;;2.01
77414;BMP280;66486;49.992;19.164;2024-01-06T01:25:14;97743.75;;;2.07
77414;BMP280;66486;49.992;19.164;2024-01-06T01:27:39;97746.41;;;2.07
77414;BMP280;66486;49.992;19.164;2024-01-06T01:30:06;97750.56;;;2.04
77414;BMP280;66486;49.992;19.164;2024-01-06T01:32:32;97754.38;;;2.14
77414;BMP280;66486;49.992;19.164;2024-01-06T01:34:58;97751.34;;;2.12
77414;BMP280;66486;49.992;19.164;2024-01-06T01:37:24;97751.34;;;2.08
77414;BMP280;66486;49.992;19.164;2024-01-06T01:39:51;97753.25;;;2.22
77414;BMP280;66486;49.992;19.164;2024-01-06T01:42:16;97738.84;;;2.01
77414;BMP280;66486;49.992;19.164;2024-01-06T01:44:43;97749.03;;;1.96
77414;BMP280;66486;49.992;19.164;2024-01-06T01:47:10;97749.81;;;2.00
77414;BMP280;66486;49.992;19.164;2024-01-06T01:49:36;97744.16;;;2.05
77414;BMP280;66486;49.992;19.164;2024-01-06T01:52:03;97748.31;;;2.20
77414;BMP280;66486;49.992;19.164;2024-01-06T01:54:29;97738.47;;;2.10
77414;BMP280;66486;49.992;19.164;2024-01-06T01:56:55;97732.78;;;2.01
77414;BMP280;66486;49.992;19.164;2024-01-06T01:59:22;97736.56;;;1.96
77414;BMP280;66486;49.992;19.164;2024-01-06T02:01:48;97737.66;;;1.88
77414;BMP280;66486;49.992;19.164;2024-01-06T02:04:15;97735.41;;;1.80
77414;BMP280;66486;49.992;19.164;2024-01-06T02:06:41;97738.44;;;1.89
77414;BMP280;66486;49.992;19.164;2024-01-06T02:09:07;97739.97;;;2.00
77414;BMP280;66486;49.992;19.164;2024-01-06T02:11:33;97743.38;;;1.97
77414;BMP280;66486;49.992;19.164;2024-01-06T02:13:59;97748.69;;;1.97
77414;BMP280;66486;49.992;19.164;2024-01-06T02:16:26;97749.81;;;2.07
77414;BMP280;66486;49.992;19.164;2024-01-06T02:18:52;97749.03;;;1.78
77414;BMP280;66486;49.992;19.164;2024-01-06T02:21:21;97744.88;;;1.81
77414;BMP280;66486;49.992;19.164;2024-01-06T02:23:48;97746.75;;;1.77
77414;BMP280;66486;49.992;19.164;2024-01-06T02:26:15;97747.91;;;1.97
77414;BMP280;66486;49.992;19.164;2024-01-06T02:28:42;97743.38;;;2.08
77414;BMP280;66486;49.992;19.164;2024-01-06T02:31:10;97743.75;;;2.03
77414;BMP280;66486;49.992;19.164;2024-01-06T02:33:37;97737.69;;;2.02
77414;BMP280;66486;49.992;19.164;2024-01-06T02:36:03;97733.16;;;2.14
77414;BMP280;66486;49.992;19.164;2024-01-06T02:38:30;97733.16;;;2.24
77414;BMP280;66486;49.992;19.164;2024-01-06T02:40:55;97727.84;;;2.21
77414;BMP280;66486;49.992;19.164;2024-01-06T02:43:22;97722.19;;;2.22
77414;BMP280;66486;49.992;19.164;2024-01-06T02:45:48;97721.41;;;2.11
77414;BMP280;66486;49.992;19.164;2024-01-06T02:48:15;97718.75;;;2.00
77414;BMP280;66486;49.992;19.164;2024-01-06T02:50:41;97723.66;;;1.81
77414;BMP280;66486;49.992;19.164;2024-01-06T02:53:07;97724.41;;;1.92
77414;BMP280;66486;49.992;19.164;2024-01-06T02:55:35;97727.81;;;1.71
77414;BMP280;66486;49.992;19.164;2024-01-06T02:58:01;97728.19;;;1.70
77414;BMP280;66486;49.992;19.164;2024-01-06T03:00:27;97721.00;;;1.95
77414;BMP280;66486;49.992;19.164;2024-01-06T03:02:53;97714.59;;;1.78
77414;BMP280;66486;49.992;19.164;2024-01-06T03:05:19;97724.41;;;1.88
77414;BMP280;66486;49.992;19.164;2024-01-06T03:07:45;97710.81;;;1.79
77414;BMP280;66486;49.992;19.164;2024-01-06T03:10:11;97715.31;;;1.86
77414;BMP280;66486;49.992;19.164;2024-01-06T03:12:37;97714.97;;;1.98
77414;BMP280;66486;49.992;19.164;2024-01-06T03:15:03;97709.69;;;2.12
77414;BMP280;66486;49.992;19.164;2024-01-06T03:17:30;97712.34;;;2.19
77414;BMP280;66486;49.992;19.164;2024-01-06T03:19:56;97708.56;;;2.27
77414;BMP280;66486;49.992;19.164;2024-01-06T03:22:23;97711.53;;;2.29
77414;BMP280;66486;49.992;19.164;2024-01-06T03:24:49;97711.94;;;2.17
77414;BMP280;66486;49.992;19.164;2024-01-06T03:27:15;97711.94;;;2.21
77414;BMP280;66486;49.992;19.164;2024-01-06T03:29:41;97711.94;;;2.24
77414;BMP280;66486;49.992;19.164;2024-01-06T03:32:07;97711.22;;;2.27
77414;BMP280;66486;49.992;19.164;2024-01-06T03:34:33;97714.97;;;2.26
77414;BMP280;66486;49.992;19.164;2024-01-06T03:36:59;97711.94;;;2.21
77414;BMP280;66486;49.992;19.164;2024-01-06T03:39:25;97708.56;;;2.27
77414;BMP280;66486;49.992;19.164;2024-01-06T03:41:52;97715.72;;;2.30
77414;BMP280;66486;49.992;19.164;2024-01-06T03:44:18;97702.81;;;2.36
77414;BMP280;66486;49.992;19.164;2024-01-06T03:46:44;97709.66;;;2.44
77414;BMP280;66486;49.992;19.164;2024-01-06T03:49:10;97711.16;;;2.45
77414;BMP280;66486;49.992;19.164;2024-01-06T03:51:36;97706.63;;;2.38
77414;BMP280;66486;49.992;19.164;2024-01-06T03:54:02;97714.19;;;2.47
77414;BMP280;66486;49.992;19.164;2024-01-06T03:56:28;97713.81;;;2.41
77414;BMP280;66486;49.992;19.164;2024-01-06T03:58:54;97714.59;;;2.38
77414;BMP280;66486;49.992;19.164;2024-01-06T04:01:20;97708.13;;;2.43
77414;BMP280;66486;49.992;19.164;2024-01-06T04:03:47;97713.81;;;2.48
77414;BMP280;66486;49.992;19.164;2024-01-06T04:06:13;97713.44;;;2.39
77414;BMP280;66486;49.992;19.164;2024-01-06T04:08:40;97718.72;;;2.39
77414;BMP280;66486;49.992;19.164;2024-01-06T04:11:09;97719.50;;;2.29
77414;BMP280;66486;49.992;19.164;2024-01-06T04:13:34;97721.38;;;2.57
77414;BMP280;66486;49.992;19.164;2024-01-06T04:16:01;97718.34;;;2.55
77414;BMP280;66486;49.992;19.164;2024-01-06T04:18:27;97716.41;;;2.63
77414;BMP280;66486;49.992;19.164;2024-01-06T04:20:53;97713.03;;;2.59
77414;BMP280;66486;49.992;19.164;2024-01-06T04:23:19;97697.88;;;2.52
77414;BMP280;66486;49.992;19.164;2024-01-06T04:25:45;97691.44;;;2.60
77414;BMP280;66486;49.992;19.164;2024-01-06T04:28:11;97687.22;;;2.63
77414;BMP280;66486;49.992;19.164;2024-01-06T04:30:37;97690.69;;;2.60
77414;BMP280;66486;49.992;19.164;2024-01-06T04:33:03;97704.31;;;2.62
77414;BMP280;66486;49.992;19.164;2024-01-06T04:35:29;97706.16;;;2.65
77414;BMP280;66486;49.992;19.164;2024-01-06T04:37:55;97704.28;;;2.65
77414;BMP280;66486;49.992;19.164;2024-01-06T04:40:21;97710.34;;;2.66
77414;BMP280;66486;49.992;19.164;2024-01-06T04:42:47;97711.47;;;2.65
77414;BMP280;66486;49.992;19.164;2024-01-06T04:45:13;97703.97;;;2.56
77414;BMP280;66486;49.992;19.164;2024-01-06T04:47:39;97703.91;;;2.63
77414;BMP280;66486;49.992;19.164;2024-01-06T04:50:06;97697.47;;;2.61
77414;BMP280;66486;49.992;19.164;2024-01-06T04:52:32;97700.09;;;2.64
77414;BMP280;66486;49.992;19.164;2024-01-06T04:54:58;97700.47;;;2.70
77414;BMP280;66486;49.992;19.164;2024-01-06T04:57:24;97705.44;;;2.68
77414;BMP280;66486;49.992;19.164;2024-01-06T04:59:50;97708.81;;;2.72
77414;BMP280;66486;49.992;19.164;2024-01-06T05:02:16;97702.75;;;2.75
77414;BMP280;66486;49.992;19.164;2024-01-06T05:04:43;97712.63;;;2.71
77414;BMP280;66486;49.992;19.164;2024-01-06T05:07:09;97706.13;;;2.79
77414;BMP280;66486;49.992;19.164;2024-01-06T05:09:35;97700.09;;;2.75
77414;BMP280;66486;49.992;19.164;2024-01-06T05:12:01;97683.78;;;2.73
77414;BMP280;66486;49.992;19.164;2024-01-06T05:14:27;97687.59;;;2.65
77414;BMP280;66486;49.992;19.164;2024-01-06T05:16:53;97682.28;;;2.65
77414;BMP280;66486;49.992;19.164;2024-01-06T05:19:19;97687.56;;;2.75
77414;BMP280;66486;49.992;19.164;2024-01-06T05:21:47;97685.34;;;2.63
77414;BMP280;66486;49.992;19.164;2024-01-06T05:24:14;97684.56;;;2.66
77414;BMP280;66486;49.992;19.164;2024-01-06T05:26:40;97683.44;;;2.71
77414;BMP280;66486;49.992;19.164;2024-01-06T05:29:07;97677.31;;;2.81
77414;BMP280;66486;49.992;19.164;2024-01-06T05:31:33;97681.91;;;2.66
77414;BMP280;66486;49.992;19.164;2024-01-06T05:33:59;97676.97;;;2.68
77414;BMP280;66486;49.992;19.164;2024-01-06T05:36:25;97675.81;;;2.73
77414;BMP280;66486;49.992;19.164;2024-01-06T05:38:52;97678.09;;;2.81
77414;BMP280;66486;49.992;19.164;2024-01-06T05:41:18;97683.00;;;2.76
77414;BMP280;66486;49.992;19.164;2024-01-06T05:43:44;97687.94;;;2.81
77414;BMP280;66486;49.992;19.164;2024-01-06T05:46:10;97691.34;;;2.85
77414;BMP280;66486;49.992;19.164;2024-01-06T05:48:37;97686.09;;;2.71
77414;BMP280;66486;49.992;19.164;2024-01-06T05:51:06;97687.94;;;2.88
77414;BMP280;66486;49.992;19.164;2024-01-06T05:53:32;97693.63;;;2.83
77414;BMP280;66486;49.992;19.164;2024-01-06T05:55:58;97690.97;;;2.79
77414;BMP280;66486;49.992;19.164;2024-01-06T05:58:24;97689.84;;;2.77
77414;BMP280;66486;49.992;19.164;2024-01-06T06:00:50;97697.44;;;2.85
77414;BMP280;66486;49.992;19.164;2024-01-06T06:03:17;97695.53;;;2.89
77414;BMP280;66486;49.992;19.164;2024-01-06T06:05:43;97701.13;;;2.98
77414;BMP280;66486;49.992;19.164;2024-01-06T06:08:09;97720.47;;;3.02
77414;BMP280;66486;49.992;19.164;2024-01-06T06:10:35;97723.50;;;3.01
77414;BMP280;66486;49.992;19.164;2024-01-06T06:13:18;97717.06;;;2.98
77414;BMP280;66486;49.992;19.164;2024-01-06T06:15:46;97718.97;;;2.98
77414;BMP280;66486;49.992;19.164;2024-01-06T06:18:13;97721.25;;;2.99
77414;BMP280;66486;49.992;19.164;2024-01-06T06:20:38;97718.19;;;3.01
77414;BMP280;66486;49.992;19.164;2024-01-06T06:23:07;97715.16;;;3.06
77414;BMP280;66486;49.992;19.164;2024-01-06T06:25:33;97723.09;;;3.13
77414;BMP280;66486;49.992;19.164;2024-01-06T06:27:59;97717.03;;;3.09
77414;BMP280;66486;49.992;19.164;2024-01-06T06:30:26;97710.94;;;3.12
77414;BMP280;66486;49.992;19.164;2024-01-06T06:32:52;97721.56;;;3.16
77414;BMP280;66486;49.992;19.164;2024-01-06T06:35:23;97713.63;;;3.05
77414;BMP280;66486;49.992;19.164;2024-01-06T06:37:52;97717.03;;;3.13
77414;BMP280;66486;49.992;19.164;2024-01-06T06:40:21;97715.53;;;3.01
77414;BMP280;66486;49.992;19.164;2024-01-06T06:42:49;97720.50;;;2.95
77414;BMP280;66486;49.992;19.164;2024-01-06T06:45:16;97711.00;;;2.98
77414;BMP280;66486;49.992;19.164;2024-01-06T06:47:51;97714.09;;;2.89
77414;BMP280;66486;49.992;19.164;2024-01-06T06:50:17;97713.66;;;2.94
77414;BMP280;66486;49.992;19.164;2024-01-06T06:52:49;97719.75;;;2.95
77414;BMP280;66486;49.992;19.164;2024-01-06T06:55:15;97722.00;;;3.03
77414;BMP280;66486;49.992;19.164;2024-01-06T06:57:41;97716.28;;;3.12
77414;BMP280;66486;49.992;19.164;2024-01-06T07:00:07;97716.28;;;3.05
77414;BMP280;66486;49.992;19.164;2024-01-06T07:02:35;97722.34;;;3.16
77414;BMP280;66486;49.992;19.164;2024-01-06T07:05:01;97715.03;;;3.31
77414;BMP280;66486;49.992;19.164;2024-01-06T07:07:33;97728.38;;;3.20
77414;BMP280;66486;49.992;19.164;2024-01-06T07:10:04;97726.09;;;3.26
77414;BMP280;66486;49.992;19.164;2024-01-06T07:12:31;97728.34;;;3.24
77414;BMP280;66486;49.992;19.164;2024-01-06T07:15:03;97726.88;;;3.19
77414;BMP280;66486;49.992;19.164;2024-01-06T07:17:32;97732.16;;;3.23
77414;BMP280;66486;49.992;19.164;2024-01-06T07:19:58;97726.44;;;3.28
77414;BMP280;66486;49.992;19.164;2024-01-06T07:22:25;97726.09;;;3.26
77414;BMP280;66486;49.992;19.164;2024-01-06T07:24:52;97728.75;;;3.22
77414;BMP280;66486;49.992;19.164;2024-01-06T07:27:18;97728.00;;;3.22
77414;BMP280;66486;49.992;19.164;2024-01-06T07:29:48;97732.88;;;3.30
77414;BMP280;66486;49.992;19.164;2024-01-06T07:32:23;97722.66;;;3.25
77414;BMP280;66486;49.992;19.164;2024-01-06T07:34:52;97719.22;;;3.32
77414;BMP280;66486;49.992;19.164;2024-01-06T07:37:21;97726.03;;;3.36
77414;BMP280;66486;49.992;19.164;2024-01-06T07:39:47;97723.00;;;3.31
77414;BMP280;66486;49.992;19.164;2024-01-06T07:42:14;97732.84;;;3.41
77414;BMP280;66486;49.992;19.164;2024-01-06T07:44:40;97737.00;;;3.42
77414;BMP280;66486;49.992;19.164;2024-01-06T07:47:07;97740.34;;;3.56
77414;BMP280;66486;49.992;19.164;2024-01-06T07:49:35;97740.34;;;3.53
77414;BMP280;66486;49.992;19.164;2024-01-06T07:52:03;97743.41;;;3.55
77414;BMP280;66486;49.992;19.164;2024-01-06T07:54:29;97743.84;;;3.46
77414;BMP280;66486;49.992;19.164;2024-01-06T07:56:56;97745.75;;;3.42
77414;BMP280;66486;49.992;19.164;2024-01-06T07:59:22;97746.41;;;3.60
77414;BMP280;66486;49.992;19.164;2024-01-06T08:01:49;97752.84;;;3.63
77414;BMP280;66486;49.992;19.164;2024-01-06T08:04:15;97751.75;;;3.50
77414;BMP280;66486;49.992;19.164;2024-01-06T08:06:41;97753.28;;;3.54
77414;BMP280;66486;49.992;19.164;2024-01-06T08:09:07;97764.25;;;3.56
77414;BMP280;66486;49.992;19.164;2024-01-06T08:11:34;97758.16;;;3.59
77414;BMP280;66486;49.992;19.164;2024-01-06T08:14:00;97766.16;;;3.56
77414;BMP280;66486;49.992;19.164;2024-01-06T08:16:29;97770.69;;;3.70
77414;BMP280;66486;49.992;19.164;2024-01-06T08:19:05;97769.84;;;3.76
77414;BMP280;66486;49.992;19.164;2024-01-06T08:21:34;97773.63;;;3.79
77414;BMP280;66486;49.992;19.164;2024-01-06T08:24:03;97763.84;;;3.69
77414;BMP280;66486;49.992;19.164;2024-01-06T08:26:33;97776.69;;;3.81
77414;BMP280;66486;49.992;19.164;2024-01-06T08:28:59;97777.00;;;3.90
77414;BMP280;66486;49.992;19.164;2024-01-06T08:31:36;97777.03;;;3.83
77414;BMP280;66486;49.992;19.164;2024-01-06T08:34:03;97780.81;;;3.85
77414;BMP280;66486;49.992;19.164;2024-01-06T08:36:32;97772.09;;;3.85
77414;BMP280;66486;49.992;19.164;2024-01-06T08:38:58;97772.00;;;3.99
77414;BMP280;66486;49.992;19.164;2024-01-06T08:41:25;97773.09;;;4.01
77414;BMP280;66486;49.992;19.164;2024-01-06T08:43:51;97769.66;;;4.04
77414;BMP280;66486;49.992;19.164;2024-01-06T08:46:18;97770.81;;;4.03
77414;BMP280;66486;49.992;19.164;2024-01-06T08:48:44;97773.56;;;3.93
77414;BMP280;66486;49.992;19.164;2024-01-06T08:51:11;97772.81;;;3.92
77414;BMP280;66486;49.992;19.164;2024-01-06T08:53:37;97773.91;;;3.95
77414;BMP280;66486;49.992;19.164;2024-01-06T08:56:03;97777.84;;;3.73
77414;BMP280;66486;49.992;19.164;2024-01-06T08:58:30;97776.69;;;3.81
77414;BMP280;66486;49.992;19.164;2024-01-06T09:00:56;97779.66;;;3.90
77414;BMP280;66486;49.992;19.164;2024-01-06T09:03:22;97775.84;;;3.91
77414;BMP280;66486;49.992;19.164;2024-01-06T09:05:53;97781.25;;;3.77
77414;BMP280;66486;49.992;19.164;2024-01-06T09:08:19;97772.13;;;3.81
77414;BMP280;66486;49.992;19.164;2024-01-06T09:10:48;97774.25;;;4.00
77414;BMP280;66486;49.992;19.164;2024-01-06T09:13:17;97774.66;;;3.99
77414;BMP280;66486;49.992;19.164;2024-01-06T09:15:44;97775.78;;;4.01
77414;BMP280;66486;49.992;19.164;2024-01-06T09:18:16;97778.75;;;4.10
77414;BMP280;66486;49.992;19.164;2024-01-06T09:20:43;97787.78;;;4.20
77414;BMP280;66486;49.992;19.164;2024-01-06T09:23:09;97784.13;;;4.00
77414;BMP280;66486;49.992;19.164;2024-01-06T09:25:39;97783.38;;;4.03
77414;BMP280;66486;49.992;19.164;2024-01-06T09:28:08;97783.72;;;4.08
77414;BMP280;66486;49.992;19.164;2024-01-06T09:30:37;97777.25;;;4.09
77414;BMP280;66486;49.992;19.164;2024-01-06T09:33:09;97781.38;;;4.14
77414;BMP280;66486;49.992;19.164;2024-01-06T09:35:36;97776.47;;;4.12
77414;BMP280;66486;49.992;19.164;2024-01-06T09:38:02;97783.25;;;4.17
77414;BMP280;66486;49.992;19.164;2024-01-06T09:40:33;97779.84;;;4.17
77414;BMP280;66486;49.992;19.164;2024-01-06T09:43:00;97784.69;;;4.32
77414;BMP280;66486;49.992;19.164;2024-01-06T09:45:31;97774.69;;;4.43
77414;BMP280;66486;49.992;19.164;2024-01-06T09:48:08;97779.28;;;4.39
77414;BMP280;66486;49.992;19.164;2024-01-06T09:50:38;97776.16;;;4.48
77414;BMP280;66486;49.992;19.164;2024-01-06T09:53:06;97780.41;;;4.38
77414;BMP280;66486;49.992;19.164;2024-01-06T09:55:37;97778.97;;;4.30
77414;BMP280;66486;49.992;19.164;2024-01-06T09:58:11;97773.19;;;4.39
77414;BMP280;66486;49.992;19.164;2024-01-06T10:00:37;97776.63;;;4.36
77414;BMP280;66486;49.992;19.164;2024-01-06T10:03:04;97780.75;;;4.44
77414;BMP280;66486;49.992;19.164;2024-01-06T10:05:30;97774.06;;;4.29
77414;BMP280;66486;49.992;19.164;2024-01-06T10:07:56;97774.13;;;4.14
77414;BMP280;66486;49.992;19.164;2024-01-06T10:10:23;97773.03;;;4.12
77414;BMP280;66486;49.992;19.164;2024-01-06T10:12:53;97781.69;;;4.23
77414;BMP280;66486;49.992;19.164;2024-01-06T10:15:21;97775.63;;;4.19
77414;BMP280;66486;49.992;19.164;2024-01-06T10:17:53;97776.50;;;4.05
77414;BMP280;66486;49.992;19.164;2024-01-06T10:20:28;97778.31;;;4.15
77414;BMP280;66486;49.992;19.164;2024-01-06T10:22:55;97783.63;;;4.15
77414;BMP280;66486;49.992;19.164;2024-01-06T10:25:24;97782.44;;;4.24
77414;BMP280;66486;49.992;19.164;2024-01-06T10:27:52;97789.66;;;4.23
77414;BMP280;66486;49.992;19.164;2024-01-06T10:30:25;97787.81;;;4.17
77414;BMP280;66486;49.992;19.164;2024-01-06T10:32:52;97784.59;;;4.39
77414;BMP280;66486;49.992;19.164;2024-01-06T10:35:21;97780.84;;;4.33
77414;BMP280;66486;49.992;19.164;2024-01-06T10:37:50;97789.16;;;4.39
77414;BMP280;66486;49.992;19.164;2024-01-06T10:40:20;97773.66;;;4.30
77414;BMP280;66486;49.992;19.164;2024-01-06T10:42:46;97776.75;;;4.25
77414;BMP280;66486;49.992;19.164;2024-01-06T10:45:14;97774.88;;;4.15
77414;BMP280;66486;49.992;19.164;2024-01-06T10:47:42;97762.63;;;3.80
77414;BMP280;66486;49.992;19.164;2024-01-06T10:50:12;97774.22;;;4.04
77414;BMP280;66486;49.992;19.164;2024-01-06T10:52:41;97772.72;;;4.03
77414;BMP280;66486;49.992;19.164;2024-01-06T10:55:11;97769.09;;;4.31
77414;BMP280;66486;49.992;19.164;2024-01-06T10:57:43;97764.28;;;4.11
77414;BMP280;66486;49.992;19.164;2024-01-06T11:00:13;97760.97;;;3.97
77414;BMP280;66486;49.992;19.164;2024-01-06T11:02:43;97761.25;;;4.13
77414;BMP280;66486;49.992;19.164;2024-01-06T11:05:13;97769.13;;;4.27
77414;BMP280;66486;49.992;19.164;2024-01-06T11:07:44;97764.16;;;4.26
77414;BMP280;66486;49.992;19.164;2024-01-06T11:10:17;97769.47;;;4.29
77414;BMP280;66486;49.992;19.164;2024-01-06T11:13:12;97761.69;;;4.49
77414;BMP280;66486;49.992;19.164;2024-01-06T11:15:47;97761.03;;;4.38
77414;BMP280;66486;49.992;19.164;2024-01-06T11:18:37;97767.97;;;4.28
77414;BMP280;66486;49.992;19.164;2024-01-06T11:21:17;97764.81;;;4.37
77414;BMP280;66486;49.992;19.164;2024-01-06T11:26:43;97758.91;;;4.19
77414;BMP280;66486;49.992;19.164;2024-01-06T11:29:10;97765.41;;;4.14
77414;BMP280;66486;49.992;19.164;2024-01-06T11:31:39;97758.13;;;4.25
77414;BMP280;66486;49.992;19.164;2024-01-06T11:34:16;97757.75;;;4.20
77414;BMP280;66486;49.992;19.164;2024-01-06T11:36:44;97761.53;;;4.22
77414;BMP280;66486;49.992;19.164;2024-01-06T11:39:36;97761.09;;;4.31
77414;BMP280;66486;49.992;19.164;2024-01-06T11:42:06;97743.78;;;4.08
77414;BMP280;66486;49.992;19.164;2024-01-06T11:44:39;97752.44;;;4.20
77414;BMP280;66486;49.992;19.164;2024-01-06T11:47:14;97745.44;;;4.40
77414;BMP280;66486;49.992;19.164;2024-01-06T11:49:46;97743.22;;;4.35
77414;BMP280;66486;49.992;19.164;2024-01-06T11:52:16;97738.63;;;4.35
77414;BMP280;66486;49.992;19.164;2024-01-06T11:54:46;97743.25;;;4.28
77414;BMP280;66486;49.992;19.164;2024-01-06T11:57:16;97748.59;;;4.28
77414;BMP280;66486;49.992;19.164;2024-01-06T11:59:46;97744.44;;;4.23
77414;BMP280;66486;49.992;19.164;2024-01-06T12:02:17;97754.69;;;4.25
77414;BMP280;66486;49.992;19.164;2024-01-06T12:04:52;97748.09;;;4.40
77414;BMP280;66486;49.992;19.164;2024-01-06T12:07:22;97754.88;;;4.44
77414;BMP280;66486;49.992;19.164;2024-01-06T12:10:00;97755.22;;;4.50
77414;BMP280;66486;49.992;19.164;2024-01-06T12:12:29;97757.47;;;4.51
77414;BMP280;66486;49.992;19.164;2024-01-06T12:14:58;97756.34;;;4.52
77414;BMP280;66486;49.992;19.164;2024-01-06T12:17:29;97758.56;;;4.57
77414;BMP280;66486;49.992;19.164;2024-01-06T12:20:02;97757.06;;;4.56
77414;BMP280;66486;49.992;19.164;2024-01-06T12:22:28;97753.97;;;4.61
77414;BMP280;66486;49.992;19.164;2024-01-06T12:24:55;97756.97;;;4.67
77414;BMP280;66486;49.992;19.164;2024-01-06T12:27:21;97759.91;;;4.76
77414;BMP280;66486;49.992;19.164;2024-01-06T12:29:48;97759.91;;;4.76
77414;BMP280;66486;49.992;19.164;2024-01-06T12:32:14;97768.50;;;4.91
77414;BMP280;66486;49.992;19.164;2024-01-06T12:34:40;97762.34;;;4.97
77414;BMP280;66486;49.992;19.164;2024-01-06T12:37:09;97761.41;;;5.11
77414;BMP280;66486;49.992;19.164;2024-01-06T12:39:37;97760.94;;;5.19
77414;BMP280;66486;49.992;19.164;2024-01-06T12:42:07;97752.97;;;5.16
77414;BMP280;66486;49.992;19.164;2024-01-06T12:44:34;97752.59;;;5.14
77414;BMP280;66486;49.992;19.164;2024-01-06T12:47:07;97767.09;;;5.13
77414;BMP280;66486;49.992;19.164;2024-01-06T12:49:43;97758.25;;;5.23
77414;BMP280;66486;49.992;19.164;2024-01-06T12:52:11;97759.84;;;5.17
77414;BMP280;66486;49.992;19.164;2024-01-06T12:54:39;97764.78;;;5.15
77414;BMP280;66486;49.992;19.164;2024-01-06T12:57:07;97753.28;;;5.21
77414;BMP280;66486;49.992;19.164;2024-01-06T12:59:40;97755.28;;;5.14
77414;BMP280;66486;49.992;19.164;2024-01-06T13:02:15;97763.81;;;5.02
77414;BMP280;66486;49.992;19.164;2024-01-06T13:04:48;97772.63;;;4.95
77414;BMP280;66486;49.992;19.164;2024-01-06T13:07:15;97778.66;;;4.99
77414;BMP280;66486;49.992;19.164;2024-01-06T13:09:44;97769.50;;;5.04
77414;BMP280;66486;49.992;19.164;2024-01-06T13:12:23;97768.34;;;5.05
77414;BMP280;66486;49.992;19.164;2024-01-06T13:14:58;97773.03;;;4.94
77414;BMP280;66486;49.992;19.164;2024-01-06T13:17:29;97771.84;;;4.98
77414;BMP280;66486;49.992;19.164;2024-01-06T13:19:58;97772.59;;;4.99
77414;BMP280;66486;49.992;19.164;2024-01-06T13:22:25;97777.22;;;4.95
77414;BMP280;66486;49.992;19.164;2024-01-06T13:24:52;97782.09;;;5.00
77414;BMP280;66486;49.992;19.164;2024-01-06T13:27:22;97773.13;;;4.87
77414;BMP280;66486;49.992;19.164;2024-01-06T13:29:51;97773.81;;;4.91
77414;BMP280;66486;49.992;19.164;2024-01-06T13:32:20;97765.91;;;4.87
77414;BMP280;66486;49.992;19.164;2024-01-06T13:34:50;97775.63;;;5.01
77414;BMP280;66486;49.992;19.164;2024-01-06T13:37:23;97776.28;;;5.08
77414;BMP280;66486;49.992;19.164;2024-01-06T13:39:52;97775.81;;;5.17
77414;BMP280;66486;49.992;19.164;2024-01-06T13:42:21;97780.75;;;5.18
77414;BMP280;66486;49.992;19.164;2024-01-06T13:44:53;97776.38;;;5.35
77414;BMP280;66486;49.992;19.164;2024-01-06T13:47:22;97777.47;;;5.38
77414;BMP280;66486;49.992;19.164;2024-01-06T13:49:48;97788.25;;;5.27
77414;BMP280;66486;49.992;19.164;2024-01-06T13:52:15;97784.16;;;5.19
77414;BMP280;66486;49.992;19.164;2024-01-06T13:54:51;97783.41;;;5.18
77414;BMP280;66486;49.992;19.164;2024-01-06T13:57:20;97793.34;;;5.14
77414;BMP280;66486;49.992;19.164;2024-01-06T13:59:52;97799.09;;;5.13
77414;BMP280;66486;49.992;19.164;2024-01-06T14:02:19;97799.19;;;5.06
77414;BMP280;66486;49.992;19.164;2024-01-06T14:04:45;97810.16;;;5.08
77414;BMP280;66486;49.992;19.164;2024-01-06T14:07:11;97809.16;;;4.98
77414;BMP280;66486;49.992;19.164;2024-01-06T14:09:37;97798.09;;;5.00
77414;BMP280;66486;49.992;19.164;2024-01-06T14:12:03;97802.66;;;4.99
77414;BMP280;66486;49.992;19.164;2024-01-06T14:14:33;97809.13;;;5.02
77414;BMP280;66486;49.992;19.164;2024-01-06T14:16:59;97812.91;;;5.04